Time;durP1;ratioP1;P1;durP2;ratioP2;P2;SDS_P1;SDS_P2;PMS_P1;PMS_P2;Temp;Humidity;BMP_temperature;BMP_pressure;BME280_temperature;BME280_humidity;BME280_pressure;Samples;Min_cycle;Max_cycle;Signal;HPM_P1;HPM_P2
2024/01/09 00:01:31;;;;;;;21.53;16.07;;;-4.40;1.00;;;;;;5117255;28;20183;-41
2024/01/09 00:03:56;;;;;;;24.43;16.10;;;-4.40;1.00;;;;;;5117491;28;20176;-40
2024/01/09 00:06:22;;;;;;;25.20;16.57;;;-4.50;99.90;;;;;;5117487;28;20219;-41
2024/01/09 00:08:47;;;;;;;25.10;17.57;;;-4.50;1.00;;;;;;5117095;28;20262;-42
2024/01/09 00:11:15;;;;;;;25.10;17.30;;;-4.50;1.00;;;;;;5116382;27;20211;-41
2024/01/09 00:13:41;;;;;;;25.70;17.90;;;-4.50;99.90;;;;;;5114948;28;20463;-43
2024/01/09 00:16:08;;;;;;;24.03;17.30;;;-4.50;99.90;;;;;;5114876;28;20244;-43
2024/01/09 00:18:33;;;;;;;25.47;16.63;;;-4.50;68.80;;;;;;5115759;28;20501;-41
2024/01/09 00:20:59;;;;;;;21.13;15.57;;;-4.50;1.00;;;;;;5114825;28;20618;-41
2024/01/09 00:23:24;;;;;;;19.70;13.67;;;-4.50;99.90;;;;;;5114155;28;20200;-41
2024/01/09 00:25:50;;;;;;;22.97;15.40;;;-4.60;99.90;;;;;;5113937;28;20442;-42
2024/01/09 00:28:15;;;;;;;18.00;13.80;;;-4.70;1.00;;;;;;5116035;28;20535;-41
2024/01/09 00:30:41;;;;;;;17.97;14.07;;;-4.70;1.00;;;;;;5115712;28;20242;-41
2024/01/09 00:33:07;;;;;;;21.23;14.70;;;-4.70;1.00;;;;;;5114260;28;20183;-41
2024/01/09 00:35:32;;;;;;;19.13;13.60;;;-4.70;99.90;;;;;;5115025;28;20589;-41
2024/01/09 00:37:58;;;;;;;21.13;15.03;;;-4.70;1.00;;;;;;5116335;28;20252;-43
2024/01/09 00:40:23;;;;;;;22.37;14.00;;;-4.80;1.00;;;;;;5116636;28;20568;-42
2024/01/09 00:42:49;;;;;;;22.50;15.27;;;-4.80;1.00;;;;;;5116046;28;20191;-42
2024/01/09 00:45:15;;;;;;;21.80;14.50;;;-4.90;1.00;;;;;;5115072;28;20580;-41
2024/01/09 00:47:41;;;;;;;21.50;14.47;;;-4.90;1.00;;;;;;5098252;28;20194;-40
2024/01/09 00:50:06;;;;;;;18.53;14.17;;;-4.90;1.00;;;;;;5115210;28;20441;-41
2024/01/09 00:52:32;;;;;;;21.90;14.00;;;-4.90;1.00;;;;;;5096230;28;20189;-40
2024/01/09 00:54:57;;;;;;;21.10;13.30;;;-4.90;1.00;;;;;;5096630;28;20208;-43
2024/01/09 00:57:24;;;;;;;18.30;12.97;;;-4.90;99.90;;;;;;5097012;28;20188;-41
2024/01/09 00:59:51;;;;;;;21.47;14.03;;;-4.90;1.00;;;;;;5104214;28;20207;-41
2024/01/09 01:02:17;;;;;;;21.57;14.83;;;-4.90;1.00;;;;;;5115932;28;20475;-41
2024/01/09 01:04:43;;;;;;;21.30;13.83;;;-4.90;99.90;;;;;;5100259;28;20430;-43
2024/01/09 01:07:09;;;;;;;20.80;14.60;;;-4.90;99.90;;;;;;5075861;28;20172;-41
2024/01/09 01:09:34;;;;;;;18.57;14.00;;;-4.90;99.90;;;;;;5094271;28;20670;-44
2024/01/09 01:12:00;;;;;;;17.43;13.50;;;-4.90;4.90;;;;;;5094873;28;20497;-40
2024/01/09 01:14:25;;;;;;;18.33;12.93;;;-4.90;1.00;;;;;;5095140;28;20224;-38
2024/01/09 01:16:51;;;;;;;22.03;15.63;;;-4.90;1.00;;;;;;5095727;28;20189;-37
2024/01/09 01:19:17;;;;;;;20.23;13.73;;;-5.00;1.00;;;;;;5095788;28;20238;-36
2024/01/09 01:21:42;;;;;;;21.83;13.90;;;-5.00;1.00;;;;;;5096526;28;20287;-38
2024/01/09 01:24:09;;;;;;;19.67;13.80;;;-5.00;99.90;;;;;;5096351;28;20620;-39
2024/01/09 01:26:34;;;;;;;21.10;13.30;;;-5.10;90.30;;;;;;5098244;28;20217;-37
2024/01/09 01:29:00;;;;;;;19.10;13.80;;;-5.10;1.00;;;;;;5099885;28;20433;-37
2024/01/09 01:31:25;;;;;;;16.80;12.70;;;-5.10;1.00;;;;;;5100585;28;20439;-37
2024/01/09 01:33:52;;;;;;;21.33;13.67;;;-5.10;1.00;;;;;;5099220;28;20669;-37
2024/01/09 01:36:17;;;;;;;18.53;13.50;;;-5.20;1.00;;;;;;5100247;28;20185;-37
2024/01/09 01:38:43;;;;;;;17.80;13.47;;;-5.20;1.00;;;;;;5100135;28;20480;-37
2024/01/09 01:41:09;;;;;;;21.77;13.90;;;-5.20;1.00;;;;;;5100135;28;20249;-42
2024/01/09 01:43:35;;;;;;;19.20;14.70;;;-5.20;99.90;;;;;;5098968;28;20743;-37
2024/01/09 01:46:01;;;;;;;17.53;12.33;;;-5.20;1.00;;;;;;5099743;28;20191;-38
2024/01/09 01:48:27;;;;;;;23.73;13.70;;;-5.20;1.00;;;;;;5099737;28;20195;-37
2024/01/09 01:50:52;;;;;;;19.00;13.10;;;-5.20;1.00;;;;;;5099755;28;20434;-37
2024/01/09 01:53:18;;;;;;;20.00;13.23;;;-5.20;1.00;;;;;;5099848;28;20180;-36
2024/01/09 01:55:44;;;;;;;20.60;13.00;;;-5.20;1.00;;;;;;5098736;28;20176;-37
2024/01/09 01:58:09;;;;;;;17.33;12.80;;;-5.20;1.00;;;;;;5098846;28;20246;-37
2024/01/09 02:00:36;;;;;;;19.47;13.53;;;-5.20;99.90;;;;;;5119993;28;20223;-37
2024/01/09 02:03:01;;;;;;;16.60;12.20;;;-5.20;99.90;;;;;;5119926;28;20501;-37
2024/01/09 02:05:27;;;;;;;20.60;13.10;;;-5.20;1.00;;;;;;5118845;28;20878;-38
2024/01/09 02:07:54;;;;;;;17.07;13.40;;;-5.20;99.90;;;;;;5118983;28;20432;-39
2024/01/09 02:10:20;;;;;;;24.53;13.93;;;-5.20;99.90;;;;;;5102891;28;20266;-38
2024/01/09 02:12:46;;;;;;;21.03;13.97;;;-5.20;99.90;;;;;;5120336;28;20513;-37
2024/01/09 02:15:12;;;;;;;17.97;12.30;;;-5.20;99.90;;;;;;5119404;28;20707;-37
2024/01/09 02:17:38;;;;;;;18.20;13.67;;;-5.20;14.80;;;;;;5119954;28;20997;-37
2024/01/09 02:20:07;;;;;;;22.43;13.23;;;-5.20;24.30;;;;;;5120836;28;20199;-38
2024/01/09 02:22:32;;;;;;;16.67;11.90;;;-5.30;99.90;;;;;;5119843;28;20421;-37
2024/01/09 02:24:58;;;;;;;16.10;12.20;;;-5.30;99.90;;;;;;5118867;28;20641;-38
2024/01/09 02:27:38;;;;;;;21.87;14.80;;;-5.30;74.10;;;;;;5120271;28;20255;-39
2024/01/09 02:30:04;;;;;;;17.87;12.60;;;-5.30;12.90;;;;;;5119855;28;20237;-36
2024/01/09 02:32:32;;;;;;;19.17;12.80;;;-5.40;99.90;;;;;;5120514;28;20448;-39
2024/01/09 02:34:58;;;;;;;20.33;13.03;;;-5.40;99.90;;;;;;5118348;28;20457;-38
2024/01/09 02:37:24;;;;;;;17.90;13.03;;;-5.40;99.90;;;;;;5119815;28;20433;-37
2024/01/09 02:39:49;;;;;;;21.00;14.23;;;-5.40;99.90;;;;;;5119447;28;20214;-36
2024/01/09 02:42:15;;;;;;;20.63;12.50;;;-5.40;1.00;;;;;;5120007;28;20342;-38
2024/01/09 02:44:40;;;;;;;20.13;14.00;;;-5.40;99.90;;;;;;5120262;28;20320;-38
2024/01/09 02:47:06;;;;;;;20.47;13.30;;;-5.40;99.90;;;;;;5119152;28;20160;-37
2024/01/09 02:49:31;;;;;;;20.97;14.23;;;-5.40;49.30;;;;;;5118822;28;20276;-37
2024/01/09 02:51:57;;;;;;;18.30;12.47;;;-5.50;1.00;;;;;;5120103;28;20279;-38
2024/01/09 02:54:23;;;;;;;18.80;13.53;;;-5.50;21.10;;;;;;5118852;28;20190;-38
2024/01/09 02:56:48;;;;;;;20.83;14.60;;;-5.60;1.00;;;;;;5120282;28;20206;-37
2024/01/09 02:59:14;;;;;;;18.30;13.63;;;-5.60;1.00;;;;;;5102045;28;20472;-37
2024/01/09 03:01:40;;;;;;;20.40;12.77;;;-5.60;1.00;;;;;;5098144;28;20173;-37
2024/01/09 03:04:05;;;;;;;19.60;13.50;;;-5.70;35.40;;;;;;5098034;28;20267;-36
2024/01/09 03:06:31;;;;;;;20.97;14.40;;;-5.70;99.90;;;;;;5097440;28;20252;-37
2024/01/09 03:08:56;;;;;;;21.30;13.90;;;-5.70;99.90;;;;;;5109003;28;20578;-37
2024/01/09 03:11:22;;;;;;;21.20;13.60;;;-5.60;3.70;;;;;;5117849;28;20215;-37
2024/01/09 03:13:47;;;;;;;17.70;13.37;;;-5.60;1.00;;;;;;5117009;28;20214;-37
2024/01/09 03:16:14;;;;;;;18.27;13.50;;;-5.60;1.00;;;;;;5118083;28;20419;-37
2024/01/09 03:18:42;;;;;;;20.63;14.43;;;-5.60;1.00;;;;;;5117441;28;20214;-37
2024/01/09 03:21:07;;;;;;;23.07;14.00;;;-5.70;1.00;;;;;;5118038;28;20449;-37
2024/01/09 03:23:33;;;;;;;19.83;12.67;;;-5.70;1.00;;;;;;5105376;28;20486;-37
2024/01/09 03:25:59;;;;;;;23.60;13.70;;;-5.70;1.00;;;;;;5097189;28;20188;-37
2024/01/09 03:28:25;;;;;;;20.73;13.33;;;-5.70;32.50;;;;;;5098982;28;20211;-36
2024/01/09 03:30:51;;;;;;;22.10;13.60;;;-5.70;99.90;;;;;;5117876;28;20175;-37
2024/01/09 03:33:16;;;;;;;20.30;13.20;;;-5.60;68.00;;;;;;5097583;27;20465;-38
2024/01/09 03:35:42;;;;;;;20.07;14.37;;;-5.60;1.00;;;;;;5095791;28;20177;-35
2024/01/09 03:38:07;;;;;;;21.40;14.43;;;-5.50;99.90;;;;;;5096994;28;20185;-38
2024/01/09 03:40:33;;;;;;;18.00;13.23;;;-5.50;99.90;;;;;;5113612;28;20569;-37
2024/01/09 03:42:59;;;;;;;25.57;14.10;;;-5.60;42.20;;;;;;5116556;28;20206;-38
2024/01/09 03:45:24;;;;;;;23.07;15.20;;;-5.60;99.90;;;;;;5117310;28;20180;-37
2024/01/09 03:47:50;;;;;;;18.60;13.27;;;-5.60;99.90;;;;;;5116660;28;20175;-39
2024/01/09 03:50:15;;;;;;;21.20;12.63;;;-5.70;99.90;;;;;;5105217;28;20245;-38
2024/01/09 03:52:41;;;;;;;18.17;12.70;;;-5.60;99.90;;;;;;5096947;28;20214;-37
2024/01/09 03:55:07;;;;;;;19.90;13.87;;;-5.70;99.90;;;;;;5112990;28;20271;-37
2024/01/09 03:57:32;;;;;;;18.67;13.60;;;-5.70;99.90;;;;;;5116910;28;20511;-37
2024/01/09 03:59:58;;;;;;;22.20;13.30;;;-5.70;99.90;;;;;;5109799;28;20585;-37
2024/01/09 04:02:24;;;;;;;21.03;12.40;;;-5.70;99.90;;;;;;5096800;28;20181;-36
2024/01/09 04:04:49;;;;;;;20.50;13.10;;;-5.70;99.90;;;;;;5096713;28;20435;-37
2024/01/09 04:07:15;;;;;;;19.00;14.63;;;-5.70;99.90;;;;;;5096160;28;20462;-37
2024/01/09 04:09:40;;;;;;;20.50;12.63;;;-5.70;99.90;;;;;;5095553;28;20226;-37
2024/01/09 04:12:06;;;;;;;21.20;14.10;;;-5.70;99.90;;;;;;5095127;28;20184;-37
2024/01/09 04:14:31;;;;;;;18.37;12.87;;;-5.70;99.90;;;;;;5099457;28;20248;-36
2024/01/09 04:16:57;;;;;;;19.23;12.20;;;-5.70;99.90;;;;;;5105137;28;20192;-38
2024/01/09 04:19:22;;;;;;;19.77;13.70;;;-5.70;99.90;;;;;;5105565;28;20218;-37
2024/01/09 04:21:48;;;;;;;21.00;13.53;;;-5.70;1.00;;;;;;5116656;28;20202;-37
2024/01/09 04:24:13;;;;;;;19.73;13.03;;;-5.70;99.90;;;;;;5116487;28;20174;-37
2024/01/09 04:26:39;;;;;;;16.87;12.87;;;-5.60;99.90;;;;;;5100648;28;20194;-38
2024/01/09 04:29:05;;;;;;;24.67;14.70;;;-5.60;99.90;;;;;;5096146;28;20577;-38
2024/01/09 04:31:30;;;;;;;21.37;13.40;;;-5.70;99.90;;;;;;5116286;28;20538;-37
2024/01/09 04:33:56;;;;;;;20.33;14.17;;;-5.70;1.00;;;;;;5114625;28;20308;-37
2024/01/09 04:36:21;;;;;;;23.70;14.07;;;-5.70;1.00;;;;;;5112655;28;20195;-38
2024/01/09 04:38:47;;;;;;;21.70;12.67;;;-5.80;1.00;;;;;;5114801;28;20472;-38
2024/01/09 04:41:19;;;;;;;19.37;12.37;;;-5.80;99.90;;;;;;5116010;28;20190;-36
2024/01/09 04:43:45;;;;;;;19.23;12.37;;;-5.80;1.00;;;;;;5116512;28;20176;-35
2024/01/09 04:46:11;;;;;;;15.67;11.90;;;-5.80;93.90;;;;;;5115094;28;20452;-36
2024/01/09 04:48:36;;;;;;;20.67;14.63;;;-5.80;99.90;;;;;;5114658;28;20532;-45
2024/01/09 04:51:02;;;;;;;18.87;12.53;;;-5.80;22.40;;;;;;5115626;28;20222;-45
2024/01/09 04:53:27;;;;;;;24.07;14.17;;;-5.80;57.30;;;;;;5116011;28;20184;-45
2024/01/09 04:55:53;;;;;;;18.20;12.20;;;-5.80;1.00;;;;;;5114440;28;20191;-46
2024/01/09 04:58:19;;;;;;;21.97;12.87;;;-5.80;1.00;;;;;;5113804;28;20191;-46
2024/01/09 05:00:44;;;;;;;22.83;13.43;;;-5.80;1.00;;;;;;5115646;28;20175;-45
2024/01/09 05:03:10;;;;;;;18.00;13.07;;;-5.80;59.50;;;;;;5119380;28;20172;-45
2024/01/09 05:05:36;;;;;;;20.30;13.40;;;-5.80;99.90;;;;;;5118950;28;20588;-46
2024/01/09 05:08:01;;;;;;;17.63;12.20;;;-5.90;1.00;;;;;;5104659;28;20200;-46
2024/01/09 05:10:30;;;;;;;19.80;12.33;;;-5.90;15.40;;;;;;5097311;28;20863;-45
2024/01/09 05:12:55;;;;;;;16.90;12.87;;;-5.90;99.90;;;;;;5096670;28;20184;-45
2024/01/09 05:15:21;;;;;;;23.40;12.70;;;-5.90;99.90;;;;;;5095959;28;20848;-46
2024/01/09 05:17:47;;;;;;;22.70;14.53;;;-5.90;99.90;;;;;;5101106;28;20220;-45
2024/01/09 05:20:12;;;;;;;17.87;12.10;;;-5.90;99.90;;;;;;5115946;28;20219;-45
2024/01/09 05:22:38;;;;;;;21.53;13.17;;;-5.90;14.50;;;;;;5101668;28;20533;-45
2024/01/09 05:25:04;;;;;;;21.60;13.13;;;-5.90;1.00;;;;;;5094417;28;20176;-45
2024/01/09 05:27:30;;;;;;;17.40;12.67;;;-5.80;1.00;;;;;;5095059;28;20222;-44
2024/01/09 05:29:55;;;;;;;18.33;12.00;;;-5.90;1.00;;;;;;5116383;28;20528;-45
2024/01/09 05:32:21;;;;;;;20.33;14.10;;;-5.90;1.00;;;;;;5117140;28;20194;-48
2024/01/09 05:34:47;;;;;;;19.47;13.17;;;-5.80;1.00;;;;;;5116281;28;20239;-45
2024/01/09 05:37:12;;;;;;;20.17;13.40;;;-5.80;99.90;;;;;;5116743;28;20847;-45
2024/01/09 05:39:38;;;;;;;23.00;13.90;;;-5.80;99.90;;;;;;5116025;28;20219;-45
2024/01/09 05:42:04;;;;;;;19.60;11.90;;;-5.80;99.90;;;;;;5116824;28;20178;-45
2024/01/09 05:44:29;;;;;;;18.83;11.67;;;-5.80;99.90;;;;;;5097719;28;20420;-45
2024/01/09 05:46:55;;;;;;;17.87;11.93;;;-5.90;99.90;;;;;;5092157;28;20177;-44
2024/01/09 05:49:21;;;;;;;18.07;12.10;;;-5.80;99.90;;;;;;5095807;28;20232;-45
2024/01/09 05:51:46;;;;;;;22.53;12.23;;;-5.80;99.90;;;;;;5116119;28;20600;-45
2024/01/09 05:54:12;;;;;;;18.60;11.30;;;-5.90;99.90;;;;;;5113863;28;20440;-45
2024/01/09 05:56:37;;;;;;;18.63;13.00;;;-5.90;91.90;;;;;;5115817;28;20203;-45
2024/01/09 05:59:03;;;;;;;16.80;12.10;;;-5.80;1.00;;;;;;5115045;28;20215;-45
2024/01/09 06:01:29;;;;;;;20.73;11.47;;;-5.80;1.00;;;;;;5114043;28;20225;-45
2024/01/09 06:03:54;;;;;;;19.27;11.57;;;-5.80;1.00;;;;;;5114044;28;20259;-45
2024/01/09 06:06:20;;;;;;;17.83;12.60;;;-5.90;1.00;;;;;;5113532;28;20570;-45
2024/01/09 06:08:48;;;;;;;22.80;13.07;;;-5.90;1.00;;;;;;5113410;28;20179;-45
2024/01/09 06:11:14;;;;;;;19.77;13.37;;;-5.80;1.00;;;;;;5115056;28;20635;-45
2024/01/09 06:13:40;;;;;;;18.37;12.83;;;-5.90;99.90;;;;;;5114989;28;20521;-45
2024/01/09 06:16:06;;;;;;;18.83;12.63;;;-5.90;1.00;;;;;;5099168;28;20184;-45
2024/01/09 06:18:31;;;;;;;20.63;12.43;;;-5.90;1.00;;;;;;5093138;28;20212;-45
2024/01/09 06:20:57;;;;;;;19.70;12.60;;;-6.00;1.00;;;;;;5091725;28;20407;-45
2024/01/09 06:23:22;;;;;;;21.20;11.87;;;-6.00;1.00;;;;;;5092965;28;20241;-45
2024/01/09 06:25:48;;;;;;;19.80;12.90;;;-5.90;1.00;;;;;;5092599;28;20177;-45
2024/01/09 06:28:13;;;;;;;20.00;13.47;;;-5.90;1.00;;;;;;5093952;28;20463;-45
2024/01/09 06:30:39;;;;;;;20.43;13.17;;;-5.90;1.00;;;;;;5093198;28;20492;-45
2024/01/09 06:33:04;;;;;;;19.50;12.13;;;-5.90;99.90;;;;;;5093089;28;20176;-45
2024/01/09 06:35:30;;;;;;;19.23;12.50;;;-5.90;99.90;;;;;;5104466;28;20232;-45
2024/01/09 06:37:55;;;;;;;19.43;11.97;;;-5.90;1.00;;;;;;5094116;28;20188;-45
2024/01/09 06:40:23;;;;;;;19.27;12.07;;;-5.80;1.00;;;;;;5093083;28;20270;-45
2024/01/09 06:42:49;;;;;;;19.00;12.57;;;-5.80;1.00;;;;;;5093871;28;20244;-45
2024/01/09 06:45:15;;;;;;;22.00;13.47;;;-5.80;99.90;;;;;;5092108;28;20478;-45
2024/01/09 06:47:41;;;;;;;17.77;12.80;;;-5.80;99.90;;;;;;5092997;28;20835;-45
2024/01/09 06:50:07;;;;;;;21.43;12.43;;;-5.80;99.90;;;;;;5093448;28;20434;-45
2024/01/09 06:52:32;;;;;;;21.70;12.37;;;-5.80;99.90;;;;;;5094321;28;20200;-45
2024/01/09 06:54:58;;;;;;;17.57;12.23;;;-5.80;99.90;;;;;;5095405;28;20196;-45
2024/01/09 06:57:24;;;;;;;22.67;14.87;;;-5.80;99.90;;;;;;5094726;28;20272;-45
2024/01/09 06:59:51;;;;;;;19.50;13.07;;;-5.80;99.90;;;;;;5092370;28;20547;-45
2024/01/09 07:02:16;;;;;;;21.60;13.33;;;-5.80;99.90;;;;;;5093126;28;20434;-45
2024/01/09 07:04:42;;;;;;;17.97;12.00;;;-5.80;99.90;;;;;;5093529;28;20434;-45
2024/01/09 07:07:07;;;;;;;22.77;14.03;;;-5.80;99.90;;;;;;5093864;28;20181;-45
2024/01/09 07:09:33;;;;;;;34.03;15.20;;;-5.80;99.90;;;;;;5094716;28;20203;-45
2024/01/09 07:12:00;;;;;;;20.33;12.03;;;-5.80;99.90;;;;;;5094671;28;20271;-45
2024/01/09 07:14:26;;;;;;;23.00;13.40;;;-5.90;99.90;;;;;;5093165;28;20495;-45
2024/01/09 07:16:52;;;;;;;21.67;12.93;;;-5.90;99.90;;;;;;5093457;28;20758;-45
2024/01/09 07:19:17;;;;;;;21.63;13.83;;;-5.90;99.90;;;;;;5094847;28;20590;-45
2024/01/09 07:21:42;;;;;;;24.57;16.40;;;-5.80;99.90;;;;;;5094964;28;20172;-45
2024/01/09 07:24:08;;;;;;;18.10;13.80;;;-5.90;99.90;;;;;;5093234;28;20177;-45
2024/01/09 07:26:40;;;;;;;23.90;15.67;;;-5.80;1.00;;;;;;5093262;28;20176;-45
2024/01/09 07:29:06;;;;;;;24.03;15.37;;;-5.80;50.60;;;;;;5094274;28;20271;-45
2024/01/09 07:31:31;;;;;;;23.63;16.73;;;-5.90;99.90;;;;;;5092943;28;20521;-45
2024/01/09 07:33:57;;;;;;;24.60;16.33;;;-5.80;5.60;;;;;;5093513;28;20256;-45
2024/01/09 07:36:23;;;;;;;23.30;15.70;;;-5.80;99.90;;;;;;5095365;28;20195;-45
2024/01/09 07:38:48;;;;;;;21.40;14.53;;;-5.80;91.40;;;;;;5094963;28;20480;-45
2024/01/09 07:41:17;;;;;;;21.10;14.50;;;-5.70;99.90;;;;;;5094333;28;20188;-45
2024/01/09 07:43:43;;;;;;;17.87;13.90;;;-5.60;99.90;;;;;;5093849;28;20234;-45
2024/01/09 07:46:10;;;;;;;23.50;15.07;;;-5.60;17.20;;;;;;5093943;28;20497;-45
2024/01/09 07:48:35;;;;;;;20.50;14.70;;;-5.50;11.40;;;;;;5094589;28;20537;-45
2024/01/09 07:51:01;;;;;;;23.53;15.10;;;-5.50;1.00;;;;;;5095583;28;20585;-45
2024/01/09 07:53:27;;;;;;;19.63;14.10;;;-5.40;1.00;;;;;;5096056;28;20207;-45
2024/01/09 07:55:53;;;;;;;19.13;14.17;;;-5.20;1.00;;;;;;5093745;28;20406;-45
2024/01/09 07:58:18;;;;;;;20.17;13.17;;;-5.10;1.00;;;;;;5094134;28;20716;-46
2024/01/09 08:00:44;;;;;;;22.53;15.23;;;-5.00;99.90;;;;;;5093421;28;20185;-48
2024/01/09 08:03:09;;;;;;;22.00;13.30;;;-4.90;99.90;;;;;;5092380;28;20267;-49
2024/01/09 08:05:35;;;;;;;23.33;14.30;;;-4.80;43.40;;;;;;5092672;28;20202;-45
2024/01/09 08:08:01;;;;;;;23.70;14.73;;;-4.80;68.60;;;;;;5090361;28;20188;-45
2024/01/09 08:10:26;;;;;;;22.87;15.77;;;-4.60;1.00;;;;;;5091019;28;20191;-45
2024/01/09 08:12:52;;;;;;;23.37;15.30;;;-4.70;1.00;;;;;;5093796;28;20176;-45
2024/01/09 08:15:17;;;;;;;24.80;15.90;;;-4.70;1.00;;;;;;5092993;28;20188;-45
2024/01/09 08:17:43;;;;;;;21.23;13.90;;;-4.60;1.00;;;;;;5092915;28;20573;-46
2024/01/09 08:20:09;;;;;;;20.40;14.57;;;-4.50;1.00;;;;;;5092863;28;20222;-45
2024/01/09 08:22:34;;;;;;;25.23;15.87;;;-4.40;1.00;;;;;;5093195;28;20554;-45
2024/01/09 08:25:00;;;;;;;26.00;14.80;;;-4.30;1.00;;;;;;5093992;28;20453;-46
2024/01/09 08:27:26;;;;;;;20.83;13.60;;;-4.10;1.00;;;;;;5094689;28;20746;-46
2024/01/09 08:29:51;;;;;;;21.63;14.57;;;-3.80;99.90;;;;;;5095330;28;20184;-45
2024/01/09 08:32:18;;;;;;;21.37;15.87;;;-3.60;99.90;;;;;;5094219;28;20199;-45
2024/01/09 08:34:43;;;;;;;25.83;16.03;;;-3.40;99.90;;;;;;5093113;28;20328;-46
2024/01/09 08:37:09;;;;;;;23.43;15.70;;;-3.10;99.90;;;;;;5094826;28;20722;-45
2024/01/09 08:39:34;;;;;;;22.77;14.40;;;-3.00;17.20;;;;;;5094830;28;20208;-45
2024/01/09 08:42:00;;;;;;;32.27;19.10;;;-2.90;1.00;;;;;;5093254;28;20195;-45
2024/01/09 08:44:27;;;;;;;33.33;21.40;;;-2.60;1.00;;;;;;5106894;28;20192;-46
2024/01/09 08:46:54;;;;;;;27.97;18.13;;;-2.20;1.00;;;;;;5112667;28;20258;-46
2024/01/09 08:49:20;;;;;;;20.93;14.60;;;-1.80;1.00;;;;;;5109886;28;20434;-46
2024/01/09 08:51:46;;;;;;;22.40;15.80;;;-1.60;1.00;;;;;;5101871;28;20477;-45
2024/01/09 08:54:11;;;;;;;26.37;15.83;;;-1.40;1.00;;;;;;5102680;28;20550;-46
2024/01/09 08:56:37;;;;;;;23.00;15.67;;;-1.00;1.00;;;;;;5094094;28;20249;-46
2024/01/09 08:59:03;;;;;;;23.50;16.57;;;-0.90;1.00;;;;;;5093824;28;20208;-46
2024/01/09 09:01:30;;;;;;;19.70;14.93;;;-0.90;1.00;;;;;;5093074;28;20267;-46
2024/01/09 09:03:57;;;;;;;52.80;11.47;;;-1.00;1.00;;;;;;5094205;28;20820;-43
2024/01/09 09:06:23;;;;;;;33.23;22.53;;;0.90;1.00;;;;;;5093873;28;20438;-40
2024/01/09 09:08:48;;;;;;;34.87;22.90;;;2.50;1.00;;;;;;5093611;28;20619;-41
2024/01/09 09:11:17;;;;;;;27.00;19.27;;;2.40;1.00;;;;;;5093898;28;20181;-41
2024/01/09 09:13:43;;;;;;;23.90;18.90;;;1.90;1.00;;;;;;5095411;28;20180;-40
2024/01/09 09:16:08;;;;;;;22.60;15.50;;;1.60;1.00;;;;;;5094850;28;20443;-40
2024/01/09 09:18:34;;;;;;;24.10;17.03;;;1.70;1.00;;;;;;5095187;28;20216;-40
2024/01/09 09:21:02;;;;;;;20.60;17.03;;;1.60;1.00;;;;;;5093614;28;20267;-40
2024/01/09 09:23:27;;;;;;;20.23;16.40;;;1.40;1.00;;;;;;5093183;28;20562;-41
2024/01/09 09:25:53;;;;;;;24.60;17.17;;;1.80;1.00;;;;;;5093181;28;20424;-42
2024/01/09 09:28:18;;;;;;;22.80;16.20;;;1.60;1.00;;;;;;5093115;28;20177;-41
2024/01/09 09:30:44;;;;;;;22.70;15.90;;;1.50;1.00;;;;;;5094158;28;20185;-41
2024/01/09 09:33:10;;;;;;;22.53;16.50;;;1.40;1.00;;;;;;5093496;28;20829;-42
2024/01/09 09:35:38;;;;;;;23.80;18.30;;;1.20;1.00;;;;;;5092965;28;20198;-42
2024/01/09 09:38:04;;;;;;;24.70;17.13;;;1.10;1.00;;;;;;5093580;28;20268;-44
2024/01/09 09:40:30;;;;;;;20.80;15.73;;;1.10;1.00;;;;;;5093898;28;20466;-42
2024/01/09 09:42:58;;;;;;;21.13;16.30;;;1.10;1.00;;;;;;5093125;28;20418;-40
2024/01/09 09:45:27;;;;;;;22.70;17.53;;;1.20;1.00;;;;;;5092778;28;20188;-41
2024/01/09 09:47:56;;;;;;;23.40;16.87;;;1.00;1.00;;;;;;5093259;28;20399;-43
2024/01/09 09:50:22;;;;;;;24.03;17.17;;;0.90;1.00;;;;;;5095055;28;20621;-41
2024/01/09 09:52:49;;;;;;;23.10;16.47;;;0.80;1.00;;;;;;5097050;28;20735;-40
2024/01/09 09:55:15;;;;;;;21.90;15.43;;;0.70;1.00;;;;;;5097844;28;20433;-41
2024/01/09 09:57:40;;;;;;;21.80;16.60;;;0.90;1.00;;;;;;5096377;28;20721;-40
2024/01/09 10:00:08;;;;;;;23.00;17.20;;;1.40;1.00;;;;;;5097104;28;20203;-41
2024/01/09 10:02:34;;;;;;;25.93;15.90;;;1.50;1.00;;;;;;5096605;28;20173;-40
2024/01/09 10:05:12;;;;;;;22.03;14.93;;;1.30;1.00;;;;;;5096990;28;20450;-42
2024/01/09 10:07:38;;;;;;;22.70;16.40;;;1.30;1.00;;;;;;5097103;28;20426;-47
2024/01/09 10:10:07;;;;;;;21.60;16.13;;;1.30;1.00;;;;;;5096748;28;20458;-41
2024/01/09 10:12:33;;;;;;;22.87;17.73;;;1.40;1.00;;;;;;5098079;28;20530;-40
2024/01/09 10:15:07;;;;;;;24.13;16.93;;;1.30;1.00;;;;;;5096624;28;20431;-42
2024/01/09 10:17:33;;;;;;;22.50;16.37;;;1.10;1.00;;;;;;5096041;28;20417;-40
2024/01/09 10:19:59;;;;;;;23.20;16.87;;;1.20;1.00;;;;;;5096368;28;20586;-42
2024/01/09 10:22:29;;;;;;;21.00;15.33;;;1.50;1.00;;;;;;5096073;28;20423;-42
2024/01/09 10:24:56;;;;;;;24.73;17.10;;;2.00;1.00;;;;;;5097640;28;20418;-41
2024/01/09 10:27:22;;;;;;;21.60;15.80;;;2.10;1.00;;;;;;5097553;28;20438;-43
2024/01/09 10:29:47;;;;;;;22.90;15.80;;;2.00;1.00;;;;;;5097014;28;20479;-41
2024/01/09 10:32:20;;;;;;;21.40;15.60;;;1.70;1.00;;;;;;5097354;28;20491;-44
2024/01/09 10:34:46;;;;;;;20.53;14.33;;;1.70;1.00;;;;;;5097258;28;20284;-43
2024/01/09 10:37:12;;;;;;;24.60;15.87;;;2.00;1.00;;;;;;5096270;28;20515;-42
2024/01/09 10:39:39;;;;;;;22.43;16.03;;;2.10;1.00;;;;;;5095918;28;20249;-41
2024/01/09 10:42:12;;;;;;;22.33;15.50;;;2.20;1.00;;;;;;5095676;28;20399;-43
2024/01/09 10:44:40;;;;;;;21.97;15.53;;;2.10;1.00;;;;;;5098820;28;20476;-38
2024/01/09 10:47:10;;;;;;;19.90;15.83;;;2.60;1.00;;;;;;5097155;28;20936;-43
2024/01/09 10:49:38;;;;;;;23.53;15.33;;;2.80;1.00;;;;;;5097249;28;20835;-43
2024/01/09 10:52:05;;;;;;;21.00;14.70;;;2.70;1.00;;;;;;5094459;28;20423;-43
2024/01/09 10:54:32;;;;;;;20.70;15.17;;;2.90;1.00;;;;;;5094753;28;20438;-45
2024/01/09 10:56:58;;;;;;;19.00;14.37;;;3.00;1.00;;;;;;5095179;28;20414;-42
2024/01/09 10:59:25;;;;;;;20.30;14.97;;;3.10;1.00;;;;;;5095514;28;20581;-43
2024/01/09 11:01:51;;;;;;;21.60;16.53;;;3.10;1.00;;;;;;5096029;28;20902;-42
2024/01/09 11:04:16;;;;;;;19.00;14.90;;;3.10;1.00;;;;;;5095658;28;20477;-43
2024/01/09 11:06:43;;;;;;;18.17;13.73;;;3.20;1.00;;;;;;5095123;28;20430;-43
2024/01/09 11:09:10;;;;;;;21.33;14.10;;;2.90;1.00;;;;;;5094376;28;20280;-43
2024/01/09 11:11:36;;;;;;;19.33;13.50;;;3.00;1.00;;;;;;5094319;28;20425;-43
2024/01/09 11:14:06;;;;;;;19.10;14.67;;;3.30;1.00;;;;;;5094873;28;20426;-45
2024/01/09 11:16:35;;;;;;;18.80;14.53;;;3.30;1.00;;;;;;5094696;28;20176;-44
2024/01/09 11:19:02;;;;;;;19.47;14.47;;;3.40;1.00;;;;;;5096823;28;20470;-42
2024/01/09 11:21:28;;;;;;;20.30;15.53;;;3.60;1.00;;;;;;5093571;28;20827;-43
2024/01/09 11:23:57;;;;;;;17.50;13.43;;;3.70;1.00;;;;;;5093736;28;20414;-42
2024/01/09 11:26:27;;;;;;;17.97;14.40;;;3.60;1.00;;;;;;5094308;28;20177;-43
2024/01/09 11:28:52;;;;;;;18.33;12.67;;;3.70;1.00;;;;;;5094282;28;20421;-53
2024/01/09 11:31:20;;;;;;;20.87;13.37;;;3.40;1.00;;;;;;5094080;28;20434;-42
2024/01/09 11:33:50;;;;;;;18.23;13.17;;;3.50;1.00;;;;;;5093835;28;20293;-42
2024/01/09 11:36:35;;;;;;;21.90;12.30;;;3.10;1.00;;;;;;5095610;28;20410;-42
2024/01/09 11:39:00;;;;;;;17.30;12.80;;;3.40;1.00;;;;;;5094799;28;20574;-42
2024/01/09 11:41:37;;;;;;;15.80;12.70;;;3.70;1.00;;;;;;5093289;28;20485;-42
2024/01/09 11:44:04;;;;;;;18.73;13.10;;;3.80;1.00;;;;;;5092857;28;20615;-42
2024/01/09 11:46:35;;;;;;;17.73;13.20;;;4.40;1.00;;;;;;5094075;28;20425;-42
2024/01/09 11:49:01;;;;;;;18.47;13.10;;;4.60;1.00;;;;;;5095904;28;20524;-46
2024/01/09 11:51:29;;;;;;;15.47;12.80;;;4.60;1.00;;;;;;5094643;28;20446;-45
2024/01/09 11:53:58;;;;;;;15.40;12.63;;;4.80;1.00;;;;;;5096068;28;20417;-42
2024/01/09 11:56:24;;;;;;;14.40;12.80;;;4.70;1.00;;;;;;5094880;28;20464;-43
2024/01/09 11:58:52;;;;;;;16.83;13.00;;;5.00;1.00;;;;;;5094147;28;20466;-43
2024/01/09 12:01:21;;;;;;;17.23;13.03;;;4.90;1.00;;;;;;5094564;28;20491;-41
2024/01/09 12:03:54;;;;;;;17.90;12.10;;;5.10;1.00;;;;;;5095819;28;21006;-43
2024/01/09 12:06:24;;;;;;;17.30;12.93;;;5.10;1.00;;;;;;5094590;28;20542;-43
2024/01/09 12:08:51;;;;;;;17.67;13.30;;;5.40;1.00;;;;;;5094247;28;20417;-41
2024/01/09 12:11:16;;;;;;;19.50;13.40;;;5.30;1.00;;;;;;5091215;28;20426;-41
2024/01/09 12:13:43;;;;;;;18.57;12.40;;;5.40;1.00;;;;;;5093552;28;20839;-43
2024/01/09 12:16:18;;;;;;;17.93;12.63;;;5.30;1.00;;;;;;5075926;28;20610;-42
2024/01/09 12:18:52;;;;;;;19.40;12.03;;;5.10;1.00;;;;;;5092999;28;20484;-45
2024/01/09 12:21:18;;;;;;;17.50;12.47;;;5.20;1.00;;;;;;5094965;28;21010;-41
2024/01/09 12:23:44;;;;;;;15.87;11.80;;;5.70;1.00;;;;;;5092811;28;20410;-42
2024/01/09 12:26:11;;;;;;;14.10;11.70;;;5.40;1.00;;;;;;5093215;28;20834;-41
2024/01/09 12:28:37;;;;;;;15.80;12.53;;;4.80;1.00;;;;;;5092457;28;20835;-44
2024/01/09 12:31:05;;;;;;;15.20;12.40;;;4.70;1.00;;;;;;5094321;28;20427;-42